sensor_id;sensor_type;location;lat;lon;timestamp;pressure;altitude;pressure_sealevel;temperature;humidity
67842;BME280;54642;59.126;37.876;2024-02-21T00:02:19;100628.09;;;-6.33;68.52
67842;BME280;54642;59.126;37.876;2024-02-21T00:04:45;100644.63;;;-6.24;68.46
67842;BME280;54642;59.126;37.876;2024-02-21T00:07:11;100638.41;;;-6.29;68.66
67842;BME280;54642;59.126;37.876;2024-02-21T00:09:37;100633.16;;;-6.33;68.45
67842;BME280;54642;59.126;37.876;2024-02-21T00:12:03;100628.63;;;-6.37;68.50
67842;BME280;54642;59.126;37.876;2024-02-21T00:14:30;100638.19;;;-6.33;68.43
67842;BME280;54642;59.126;37.876;2024-02-21T00:16:56;100625.91;;;-6.40;68.58
67842;BME280;54642;59.126;37.876;2024-02-21T00:19:22;100610.75;;;-6.52;68.42
67842;BME280;54642;59.126;37.876;2024-02-21T00:21:48;100614.06;;;-6.53;68.72
67842;BME280;54642;59.126;37.876;2024-02-21T00:24:14;100643.13;;;-6.34;68.65
67842;BME280;54642;59.126;37.876;2024-02-21T00:26:40;100641.91;;;-6.39;68.70
67842;BME280;54642;59.126;37.876;2024-02-21T00:29:05;100614.59;;;-6.57;68.45
67842;BME280;54642;59.126;37.876;2024-02-21T00:31:31;100622.94;;;-6.58;68.64
67842;BME280;54642;59.126;37.876;2024-02-21T00:33:57;100633.69;;;-6.48;68.53
67842;BME280;54642;59.126;37.876;2024-02-21T00:36:23;100638.38;;;-6.53;68.64
67842;BME280;54642;59.126;37.876;2024-02-21T00:38:49;100593.44;;;-6.82;68.92
67842;BME280;54642;59.126;37.876;2024-02-21T00:41:15;100618.09;;;-6.66;68.92
67842;BME280;54642;59.126;37.876;2024-02-21T00:43:41;100617.13;;;-6.68;68.74
67842;BME280;54642;59.126;37.876;2024-02-21T00:46:08;100644.97;;;-6.55;68.74
67842;BME280;54642;59.126;37.876;2024-02-21T00:48:33;100649.69;;;-6.60;68.70
67842;BME280;54642;59.126;37.876;2024-02-21T00:50:59;100646.47;;;-6.69;68.82
67842;BME280;54642;59.126;37.876;2024-02-21T00:53:25;100632.75;;;-6.73;68.71
67842;BME280;54642;59.126;37.876;2024-02-21T00:55:51;100624.03;;;-6.78;68.83
67842;BME280;54642;59.126;37.876;2024-02-21T00:58:17;100592.28;;;-6.98;68.84
67842;BME280;54642;59.126;37.876;2024-02-21T01:00:43;100621.50;;;-6.78;68.92
67842;BME280;54642;59.126;37.876;2024-02-21T01:03:09;100599.78;;;-6.87;68.74
67842;BME280;54642;59.126;37.876;2024-02-21T01:05:35;100594.28;;;-6.94;68.71
67842;BME280;54642;59.126;37.876;2024-02-21T01:08:01;100612.25;;;-6.89;68.87
67842;BME280;54642;59.126;37.876;2024-02-21T01:10:26;100627.97;;;-6.81;68.83
67842;BME280;54642;59.126;37.876;2024-02-21T01:12:52;100631.78;;;-6.75;68.86
67842;BME280;54642;59.126;37.876;2024-02-21T01:15:18;100625.00;;;-6.76;68.82
67842;BME280;54642;59.126;37.876;2024-02-21T01:17:44;100598.78;;;-6.90;68.91
67842;BME280;54642;59.126;37.876;2024-02-21T01:20:10;100621.81;;;-6.73;68.75
67842;BME280;54642;59.126;37.876;2024-02-21T01:22:36;100623.66;;;-6.82;68.84
67842;BME280;54642;59.126;37.876;2024-02-21T01:25:02;100623.13;;;-6.78;68.82
67842;BME280;54642;59.126;37.876;2024-02-21T01:27:28;100627.72;;;-6.84;68.91
67842;BME280;54642;59.126;37.876;2024-02-21T01:29:54;100608.63;;;-6.93;68.77
67842;BME280;54642;59.126;37.876;2024-02-21T01:32:21;100588.00;;;-7.11;69.12
67842;BME280;54642;59.126;37.876;2024-02-21T01:34:47;100609.41;;;-6.94;68.84
67842;BME280;54642;59.126;37.876;2024-02-21T01:37:13;100592.84;;;-7.02;68.72
67842;BME280;54642;59.126;37.876;2024-02-21T01:39:39;100602.50;;;-6.96;68.56
67842;BME280;54642;59.126;37.876;2024-02-21T01:42:04;100611.25;;;-6.91;68.72
67842;BME280;54642;59.126;37.876;2024-02-21T01:44:31;100613.44;;;-6.96;68.67
67842;BME280;54642;59.126;37.876;2024-02-21T01:46:57;100596.41;;;-7.10;68.89
67842;BME280;54642;59.126;37.876;2024-02-21T01:49:23;100582.16;;;-7.21;68.83
67842;BME280;54642;59.126;37.876;2024-02-21T01:51:50;100626.56;;;-7.00;68.78
67842;BME280;54642;59.126;37.876;2024-02-21T01:54:17;100600.03;;;-7.18;68.61
67842;BME280;54642;59.126;37.876;2024-02-21T01:56:44;100606.06;;;-7.16;69.07
67842;BME280;54642;59.126;37.876;2024-02-21T01:59:11;100603.09;;;-7.22;68.75
67842;BME280;54642;59.126;37.876;2024-02-21T02:01:38;100591.22;;;-7.35;68.70
67842;BME280;54642;59.126;37.876;2024-02-21T02:04:04;100629.28;;;-7.20;68.84
67842;BME280;54642;59.126;37.876;2024-02-21T02:06:31;100644.38;;;-7.20;68.96
67842;BME280;54642;59.126;37.876;2024-02-21T02:08:57;100655.69;;;-7.15;68.93
67842;BME280;54642;59.126;37.876;2024-02-21T02:11:23;100654.66;;;-7.17;69.01
67842;BME280;54642;59.126;37.876;2024-02-21T02:13:49;100629.44;;;-7.29;69.10
67842;BME280;54642;59.126;37.876;2024-02-21T02:16:14;100646.91;;;-7.20;69.18
67842;BME280;54642;59.126;37.876;2024-02-21T02:18:40;100653.78;;;-7.18;69.02
67842;BME280;54642;59.126;37.876;2024-02-21T02:21:15;100637.34;;;-7.24;68.66
67842;BME280;54642;59.126;37.876;2024-02-21T02:23:47;100631.63;;;-7.34;69.10
67842;BME280;54642;59.126;37.876;2024-02-21T02:26:13;100656.38;;;-7.28;68.86
67842;BME280;54642;59.126;37.876;2024-02-21T02:28:39;100619.88;;;-7.45;68.81
67842;BME280;54642;59.126;37.876;2024-02-21T02:31:05;100618.09;;;-7.46;69.06
67842;BME280;54642;59.126;37.876;2024-02-21T02:33:31;100618.88;;;-7.47;69.16
67842;BME280;54642;59.126;37.876;2024-02-21T02:35:57;100624.78;;;-7.47;68.84
67842;BME280;54642;59.126;37.876;2024-02-21T02:38:24;100643.22;;;-7.36;69.22
67842;BME280;54642;59.126;37.876;2024-02-21T02:40:50;100629.06;;;-7.45;69.10
67842;BME280;54642;59.126;37.876;2024-02-21T02:43:15;100641.75;;;-7.44;69.23
67842;BME280;54642;59.126;37.876;2024-02-21T02:45:42;100658.44;;;-7.34;68.93
67842;BME280;54642;59.126;37.876;2024-02-21T02:48:08;100624.94;;;-7.55;69.06
67842;BME280;54642;59.126;37.876;2024-02-21T02:50:34;100632.63;;;-7.54;68.95
67842;BME280;54642;59.126;37.876;2024-02-21T02:52:59;100648.78;;;-7.40;69.06
67842;BME280;54642;59.126;37.876;2024-02-21T02:55:25;100624.09;;;-7.56;69.13
67842;BME280;54642;59.126;37.876;2024-02-21T02:57:51;100632.22;;;-7.48;68.97
67842;BME280;54642;59.126;37.876;2024-02-21T03:00:17;100608.50;;;-7.62;68.82
67842;BME280;54642;59.126;37.876;2024-02-21T03:02:45;100658.06;;;-7.39;69.31
67842;BME280;54642;59.126;37.876;2024-02-21T03:05:15;100658.44;;;-7.34;69.27
67842;BME280;54642;59.126;37.876;2024-02-21T03:07:42;100640.75;;;-7.46;69.20
67842;BME280;54642;59.126;37.876;2024-02-21T03:10:09;100664.59;;;-7.31;69.21
67842;BME280;54642;59.126;37.876;2024-02-21T03:12:35;100669.78;;;-7.39;69.26
67842;BME280;54642;59.126;37.876;2024-02-21T03:15:02;100638.13;;;-7.48;69.39
67842;BME280;54642;59.126;37.876;2024-02-21T03:17:28;100662.72;;;-7.33;68.95
67842;BME280;54642;59.126;37.876;2024-02-21T03:19:54;100662.13;;;-7.41;69.19
67842;BME280;54642;59.126;37.876;2024-02-21T03:22:21;100636.41;;;-7.59;69.06
67842;BME280;54642;59.126;37.876;2024-02-21T03:24:47;100646.63;;;-7.57;69.33
67842;BME280;54642;59.126;37.876;2024-02-21T03:27:13;100659.78;;;-7.50;69.05
67842;BME280;54642;59.126;37.876;2024-02-21T03:29:39;100636.38;;;-7.71;69.09
67842;BME280;54642;59.126;37.876;2024-02-21T03:32:05;100655.16;;;-7.55;69.40
67842;BME280;54642;59.126;37.876;2024-02-21T03:34:31;100656.22;;;-7.63;69.56
67842;BME280;54642;59.126;37.876;2024-02-21T03:36:56;100634.78;;;-7.80;69.37
67842;BME280;54642;59.126;37.876;2024-02-21T03:39:22;100661.88;;;-7.66;69.25
67842;BME280;54642;59.126;37.876;2024-02-21T03:41:48;100655.00;;;-7.69;69.10
67842;BME280;54642;59.126;37.876;2024-02-21T03:44:14;100639.19;;;-7.78;69.33
67842;BME280;54642;59.126;37.876;2024-02-21T03:46:41;100660.16;;;-7.67;69.33
67842;BME280;54642;59.126;37.876;2024-02-21T03:49:06;100650.16;;;-7.66;69.38
67842;BME280;54642;59.126;37.876;2024-02-21T03:51:32;100634.91;;;-7.79;69.21
67842;BME280;54642;59.126;37.876;2024-02-21T03:53:58;100622.84;;;-7.83;69.26
67842;BME280;54642;59.126;37.876;2024-02-21T03:56:24;100648.75;;;-7.62;69.14
67842;BME280;54642;59.126;37.876;2024-02-21T03:58:50;100633.63;;;-7.74;69.17
67842;BME280;54642;59.126;37.876;2024-02-21T04:01:16;100658.09;;;-7.61;69.33
67842;BME280;54642;59.126;37.876;2024-02-21T04:03:43;100630.81;;;-7.67;69.27
67842;BME280;54642;59.126;37.876;2024-02-21T04:06:09;100620.03;;;-7.76;69.43
67842;BME280;54642;59.126;37.876;2024-02-21T04:08:36;100621.28;;;-7.71;69.40
67842;BME280;54642;59.126;37.876;2024-02-21T04:11:02;100643.22;;;-7.58;69.16
67842;BME280;54642;59.126;37.876;2024-02-21T04:13:28;100626.53;;;-7.68;69.43
67842;BME280;54642;59.126;37.876;2024-02-21T04:15:53;100661.97;;;-7.54;69.48
67842;BME280;54642;59.126;37.876;2024-02-21T04:18:19;100637.09;;;-7.61;69.40
67842;BME280;54642;59.126;37.876;2024-02-21T04:20:45;100626.88;;;-7.63;69.50
67842;BME280;54642;59.126;37.876;2024-02-21T04:23:11;100641.16;;;-7.52;69.32
67842;BME280;54642;59.126;37.876;2024-02-21T04:25:37;100623.22;;;-7.56;69.50
67842;BME280;54642;59.126;37.876;2024-02-21T04:28:03;100642.53;;;-7.45;69.56
67842;BME280;54642;59.126;37.876;2024-02-21T04:30:28;100661.13;;;-7.43;69.27
67842;BME280;54642;59.126;37.876;2024-02-21T04:32:54;100648.09;;;-7.49;69.19
67842;BME280;54642;59.126;37.876;2024-02-21T04:35:20;100628.25;;;-7.56;69.42
67842;BME280;54642;59.126;37.876;2024-02-21T04:37:46;100626.47;;;-7.57;69.24
67842;BME280;54642;59.126;37.876;2024-02-21T04:40:12;100658.06;;;-7.39;69.22
67842;BME280;54642;59.126;37.876;2024-02-21T04:42:39;100632.88;;;-7.51;69.36
67842;BME280;54642;59.126;37.876;2024-02-21T04:45:06;100629.69;;;-7.48;69.33
67842;BME280;54642;59.126;37.876;2024-02-21T04:47:31;100650.31;;;-7.42;69.34
67842;BME280;54642;59.126;37.876;2024-02-21T04:49:57;100642.53;;;-7.45;69.28
67842;BME280;54642;59.126;37.876;2024-02-21T04:52:23;100636.91;;;-7.53;69.35
67842;BME280;54642;59.126;37.876;2024-02-21T04:54:49;100636.25;;;-7.50;69.24
67842;BME280;54642;59.126;37.876;2024-02-21T04:57:15;100647.72;;;-7.54;69.49
67842;BME280;54642;59.126;37.876;2024-02-21T04:59:46;100613.06;;;-7.68;69.64
67842;BME280;54642;59.126;37.876;2024-02-21T05:02:15;100645.34;;;-7.52;69.34
67842;BME280;54642;59.126;37.876;2024-02-21T05:04:42;100658.25;;;-7.48;69.32
67842;BME280;54642;59.126;37.876;2024-02-21T05:07:08;100630.16;;;-7.64;69.67
67842;BME280;54642;59.126;37.876;2024-02-21T05:09:34;100656.38;;;-7.50;69.38
67842;BME280;54642;59.126;37.876;2024-02-21T05:12:00;100648.97;;;-7.49;69.68
67842;BME280;54642;59.126;37.876;2024-02-21T05:14:26;100650.94;;;-7.44;69.65
67842;BME280;54642;59.126;37.876;2024-02-21T05:16:55;100652.84;;;-7.42;69.39
67842;BME280;54642;59.126;37.876;2024-02-21T05:19:21;100642.53;;;-7.45;69.38
67842;BME280;54642;59.126;37.876;2024-02-21T05:21:47;100650.41;;;-7.40;69.28
67842;BME280;54642;59.126;37.876;2024-02-21T05:24:12;100632.44;;;-7.45;69.44
67842;BME280;54642;59.126;37.876;2024-02-21T05:26:38;100625.19;;;-7.52;69.61
67842;BME280;54642;59.126;37.876;2024-02-21T05:29:04;100644.75;;;-7.38;69.43
67842;BME280;54642;59.126;37.876;2024-02-21T05:32:02;100654.81;;;-7.38;69.50
67842;BME280;54642;59.126;37.876;2024-02-21T05:34:28;100646.28;;;-7.40;69.28
67842;BME280;54642;59.126;37.876;2024-02-21T05:36:54;100597.09;;;-7.69;69.40
67842;BME280;54642;59.126;37.876;2024-02-21T05:39:20;100648.44;;;-7.44;69.31
67842;BME280;54642;59.126;37.876;2024-02-21T05:41:49;100639.47;;;-7.41;69.36
67842;BME280;54642;59.126;37.876;2024-02-21T05:44:15;100642.97;;;-7.39;69.65
67842;BME280;54642;59.126;37.876;2024-02-21T05:46:41;100596.69;;;-7.63;69.44
67842;BME280;54642;59.126;37.876;2024-02-21T05:49:07;100646.84;;;-7.32;69.58
67842;BME280;54642;59.126;37.876;2024-02-21T05:51:33;100644.97;;;-7.35;69.15
67842;BME280;54642;59.126;37.876;2024-02-21T05:53:59;100643.56;;;-7.31;69.47
67842;BME280;54642;59.126;37.876;2024-02-21T05:56:25;100648.59;;;-7.31;69.22
67842;BME280;54642;59.126;37.876;2024-02-21T05:58:51;100621.38;;;-7.47;69.57
67842;BME280;54642;59.126;37.876;2024-02-21T06:01:17;100646.31;;;-7.28;69.18
67842;BME280;54642;59.126;37.876;2024-02-21T06:03:47;100636.66;;;-7.34;69.48
67842;BME280;54642;59.126;37.876;2024-02-21T06:06:13;100641.69;;;-7.34;69.78
67842;BME280;54642;59.126;37.876;2024-02-21T06:08:40;100622.13;;;-7.48;69.29
67842;BME280;54642;59.126;37.876;2024-02-21T06:11:06;100645.84;;;-7.34;69.60
67842;BME280;54642;59.126;37.876;2024-02-21T06:13:32;100645.84;;;-7.34;69.67
67842;BME280;54642;59.126;37.876;2024-02-21T06:15:58;100619.88;;;-7.45;69.27
67842;BME280;54642;59.126;37.876;2024-02-21T06:18:23;100661.41;;;-7.28;69.34
67842;BME280;54642;59.126;37.876;2024-02-21T06:20:49;100622.63;;;-7.42;69.41
67842;BME280;54642;59.126;37.876;2024-02-21T06:23:16;100643.16;;;-7.25;69.63
67842;BME280;54642;59.126;37.876;2024-02-21T06:25:42;100639.66;;;-7.28;69.56
67842;BME280;54642;59.126;37.876;2024-02-21T06:28:08;100649.41;;;-7.20;69.54
67842;BME280;54642;59.126;37.876;2024-02-21T06:30:35;100635.06;;;-7.21;69.82
67842;BME280;54642;59.126;37.876;2024-02-21T06:33:00;100638.25;;;-7.12;69.42
67842;BME280;54642;59.126;37.876;2024-02-21T06:35:28;100615.56;;;-7.24;69.40
67842;BME280;54642;59.126;37.876;2024-02-21T06:37:54;100633.00;;;-7.15;69.54
67842;BME280;54642;59.126;37.876;2024-02-21T06:40:21;100594.81;;;-7.43;69.30
67842;BME280;54642;59.126;37.876;2024-02-21T06:42:48;100608.09;;;-7.34;69.20
67842;BME280;54642;59.126;37.876;2024-02-21T06:45:14;100650.41;;;-7.18;69.64
67842;BME280;54642;59.126;37.876;2024-02-21T06:47:40;100642.84;;;-7.18;69.58
67842;BME280;54642;59.126;37.876;2024-02-21T06:50:06;100638.91;;;-7.15;69.63
67842;BME280;54642;59.126;37.876;2024-02-21T06:52:32;100628.41;;;-7.09;69.54
67842;BME280;54642;59.126;37.876;2024-02-21T06:54:58;100634.31;;;-7.09;69.54
67842;BME280;54642;59.126;37.876;2024-02-21T06:57:24;100644.63;;;-7.05;69.33
67842;BME280;54642;59.126;37.876;2024-02-21T06:59:50;100608.34;;;-7.19;69.41
67842;BME280;54642;59.126;37.876;2024-02-21T07:02:15;100626.25;;;-7.04;69.48
67842;BME280;54642;59.126;37.876;2024-02-21T07:04:41;100614.75;;;-7.01;69.53
67842;BME280;54642;59.126;37.876;2024-02-21T07:07:07;100626.16;;;-6.94;69.36
67842;BME280;54642;59.126;37.876;2024-02-21T07:09:33;100632.09;;;-6.94;69.34
67842;BME280;54642;59.126;37.876;2024-02-21T07:11:59;100640.19;;;-6.86;69.42
67842;BME280;54642;59.126;37.876;2024-02-21T07:14:25;100620.34;;;-6.93;69.50
67842;BME280;54642;59.126;37.876;2024-02-21T07:16:51;100614.66;;;-6.91;69.44
67842;BME280;54642;59.126;37.876;2024-02-21T07:19:17;100633.19;;;-6.78;68.94
67842;BME280;54642;59.126;37.876;2024-02-21T07:21:43;100599.09;;;-6.85;69.20
67842;BME280;54642;59.126;37.876;2024-02-21T07:24:09;100615.66;;;-6.77;69.21
67842;BME280;54642;59.126;37.876;2024-02-21T07:26:35;100624.22;;;-6.75;69.17
67842;BME280;54642;59.126;37.876;2024-02-21T07:29:01;100608.19;;;-6.87;69.04
67842;BME280;54642;59.126;37.876;2024-02-21T07:31:27;100616.34;;;-6.79;69.18
67842;BME280;54642;59.126;37.876;2024-02-21T07:33:52;100626.75;;;-6.75;69.33
67842;BME280;54642;59.126;37.876;2024-02-21T07:36:29;100633.66;;;-6.72;69.32
67842;BME280;54642;59.126;37.876;2024-02-21T07:38:56;100627.84;;;-6.71;69.17
67842;BME280;54642;59.126;37.876;2024-02-21T07:41:21;100630.34;;;-6.71;69.10
67842;BME280;54642;59.126;37.876;2024-02-21T07:43:47;100632.88;;;-6.71;69.22
67842;BME280;54642;59.126;37.876;2024-02-21T07:46:14;100629.59;;;-6.58;69.08
67842;BME280;54642;59.126;37.876;2024-02-21T07:48:40;100623.47;;;-6.62;69.01
67842;BME280;54642;59.126;37.876;2024-02-21T07:51:06;100622.59;;;-6.62;69.08
67842;BME280;54642;59.126;37.876;2024-02-21T07:53:32;100602.53;;;-6.73;69.07
67842;BME280;54642;59.126;37.876;2024-02-21T07:55:57;100565.25;;;-6.88;68.82
67842;BME280;54642;59.126;37.876;2024-02-21T07:58:23;100614.59;;;-6.57;68.69
67842;BME280;54642;59.126;37.876;2024-02-21T08:00:49;100636.19;;;-6.37;68.68
67842;BME280;54642;59.126;37.876;2024-02-21T08:03:15;100635.78;;;-6.31;68.58
67842;BME280;54642;59.126;37.876;2024-02-21T08:05:43;100612.75;;;-6.36;68.57
67842;BME280;54642;59.126;37.876;2024-02-21T08:08:09;100637.06;;;-6.13;68.65
67842;BME280;54642;59.126;37.876;2024-02-21T08:10:35;100618.44;;;-6.15;68.31
67842;BME280;54642;59.126;37.876;2024-02-21T08:13:01;100639.03;;;-5.97;68.26
67842;BME280;54642;59.126;37.876;2024-02-21T08:15:27;100630.19;;;-5.78;68.18
67842;BME280;54642;59.126;37.876;2024-02-21T08:17:58;100627.50;;;-5.56;68.04
67842;BME280;54642;59.126;37.876;2024-02-21T08:20:27;100623.84;;;-5.23;67.77
67842;BME280;54642;59.126;37.876;2024-02-21T08:22:53;100595.81;;;-5.14;67.62
67842;BME280;54642;59.126;37.876;2024-02-21T08:25:18;100596.44;;;-4.91;67.27
67842;BME280;54642;59.126;37.876;2024-02-21T08:27:44;100620.50;;;-4.71;67.08
67842;BME280;54642;59.126;37.876;2024-02-21T08:30:11;100628.59;;;-4.50;67.00
67842;BME280;54642;59.126;37.876;2024-02-21T08:32:37;100602.13;;;-4.55;66.72
67842;BME280;54642;59.126;37.876;2024-02-21T08:35:03;100612.06;;;-4.45;66.61
67842;BME280;54642;59.126;37.876;2024-02-21T08:37:30;100631.91;;;-4.25;66.67
67842;BME280;54642;59.126;37.876;2024-02-21T08:39:56;100624.09;;;-4.01;66.56
67842;BME280;54642;59.126;37.876;2024-02-21T08:42:22;100615.50;;;-3.76;66.46
67842;BME280;54642;59.126;37.876;2024-02-21T08:44:49;100602.75;;;-3.78;66.06
67842;BME280;54642;59.126;37.876;2024-02-21T08:47:15;100625.22;;;-3.56;65.82
67842;BME280;54642;59.126;37.876;2024-02-21T08:49:40;100625.06;;;-3.44;65.78
67842;BME280;54642;59.126;37.876;2024-02-21T08:52:06;100614.50;;;-3.37;65.53
67842;BME280;54642;59.126;37.876;2024-02-21T08:54:32;100598.69;;;-3.33;65.65
67842;BME280;54642;59.126;37.876;2024-02-21T08:56:59;100596.56;;;-3.40;65.14
67842;BME280;54642;59.126;37.876;2024-02-21T08:59:25;100610.03;;;-3.13;65.43
67842;BME280;54642;59.126;37.876;2024-02-21T09:01:51;100594.00;;;-3.12;65.00
67842;BME280;54642;59.126;37.876;2024-02-21T09:04:20;100609.59;;;-2.91;64.76
67842;BME280;54642;59.126;37.876;2024-02-21T09:06:46;100597.28;;;-2.99;64.79
67842;BME280;54642;59.126;37.876;2024-02-21T09:09:12;100611.00;;;-2.81;64.79
67842;BME280;54642;59.126;37.876;2024-02-21T09:11:38;100587.66;;;-2.90;64.59
67842;BME280;54642;59.126;37.876;2024-02-21T09:14:05;100594.56;;;-2.88;64.40
67842;BME280;54642;59.126;37.876;2024-02-21T09:16:32;100582.84;;;-3.00;64.70
67842;BME280;54642;59.126;37.876;2024-02-21T09:18:58;100591.94;;;-2.89;64.57
67842;BME280;54642;59.126;37.876;2024-02-21T09:21:24;100619.22;;;-2.85;64.38
67842;BME280;54642;59.126;37.876;2024-02-21T09:23:50;100607.41;;;-2.84;64.34
67842;BME280;54642;59.126;37.876;2024-02-21T09:26:15;100598.59;;;-2.91;64.58
67842;BME280;54642;59.126;37.876;2024-02-21T09:28:43;100606.22;;;-2.91;64.58
67842;BME280;54642;59.126;37.876;2024-02-21T09:31:09;100609.41;;;-2.94;64.29
67842;BME280;54642;59.126;37.876;2024-02-21T09:33:35;100620.69;;;-3.03;64.37
67842;BME280;54642;59.126;37.876;2024-02-21T09:36:02;100610.19;;;-3.10;64.40
67842;BME280;54642;59.126;37.876;2024-02-21T09:38:31;100591.66;;;-3.23;64.26
67842;BME280;54642;59.126;37.876;2024-02-21T09:41:16;100609.41;;;-3.09;64.51
67842;BME280;54642;59.126;37.876;2024-02-21T09:43:43;100617.22;;;-3.05;64.97
67842;BME280;54642;59.126;37.876;2024-02-21T09:46:18;100616.94;;;-2.95;64.57
67842;BME280;54642;59.126;37.876;2024-02-21T09:51:30;100579.78;;;-2.95;64.42
67842;BME280;54642;59.126;37.876;2024-02-21T09:53:59;100589.94;;;-2.80;64.23
67842;BME280;54642;59.126;37.876;2024-02-21T09:56:25;100582.50;;;-2.77;64.38
67842;BME280;54642;59.126;37.876;2024-02-21T09:58:51;100598.44;;;-2.64;64.24
67842;BME280;54642;59.126;37.876;2024-02-21T10:01:16;100601.75;;;-2.65;64.32
67842;BME280;54642;59.126;37.876;2024-02-21T10:03:42;100594.56;;;-2.73;64.32
67842;BME280;54642;59.126;37.876;2024-02-21T10:06:09;100596.16;;;-2.75;64.25
67842;BME280;54642;59.126;37.876;2024-02-21T10:08:35;100582.41;;;-2.63;64.56
67842;BME280;54642;59.126;37.876;2024-02-21T10:11:01;100591.06;;;-2.45;64.43
67842;BME280;54642;59.126;37.876;2024-02-21T10:13:29;100588.91;;;-2.22;64.24
67842;BME280;54642;59.126;37.876;2024-02-21T10:16:06;100583.19;;;-2.18;64.03
67842;BME280;54642;59.126;37.876;2024-02-21T10:18:33;100581.00;;;-2.12;63.77
67842;BME280;54642;59.126;37.876;2024-02-21T10:21:07;100597.38;;;-2.07;63.21
67842;BME280;54642;59.126;37.876;2024-02-21T10:23:46;100570.50;;;-2.18;63.14
67842;BME280;54642;59.126;37.876;2024-02-21T10:26:14;100596.94;;;-1.83;63.18
67842;BME280;54642;59.126;37.876;2024-02-21T10:28:40;100584.88;;;-1.71;63.29
67842;BME280;54642;59.126;37.876;2024-02-21T10:31:22;100580.44;;;-1.75;63.06
67842;BME280;54642;59.126;37.876;2024-02-21T10:34:01;100563.63;;;-1.73;63.03
67842;BME280;54642;59.126;37.876;2024-02-21T10:36:31;100581.88;;;-1.64;62.80
67842;BME280;54642;59.126;37.876;2024-02-21T10:38:57;100558.91;;;-1.82;62.44
67842;BME280;54642;59.126;37.876;2024-02-21T10:41:23;100571.69;;;-1.97;62.47
67842;BME280;54642;59.126;37.876;2024-02-21T10:43:54;100563.88;;;-2.31;62.57
67842;BME280;54642;59.126;37.876;2024-02-21T10:46:22;100560.59;;;-2.45;62.83
67842;BME280;54642;59.126;37.876;2024-02-21T10:49:14;100585.78;;;-2.33;62.94
67842;BME280;54642;59.126;37.876;2024-02-21T10:51:42;100583.88;;;-2.37;63.01
67842;BME280;54642;59.126;37.876;2024-02-21T10:56:38;100608.84;;;-2.45;63.25
67842;BME280;54642;59.126;37.876;2024-02-21T10:59:06;100592.69;;;-2.45;63.34
67842;BME280;54642;59.126;37.876;2024-02-21T11:01:33;100589.03;;;-2.36;63.61
67842;BME280;54642;59.126;37.876;2024-02-21T11:04:08;100581.75;;;-2.30;63.25
67842;BME280;54642;59.126;37.876;2024-02-21T11:06:37;100567.31;;;-2.31;63.30
67842;BME280;54642;59.126;37.876;2024-02-21T11:09:08;100596.19;;;-1.97;63.17
67842;BME280;54642;59.126;37.876;2024-02-21T11:11:35;100596.38;;;-1.78;62.82
67842;BME280;54642;59.126;37.876;2024-02-21T11:14:07;100592.25;;;-1.76;62.12
67842;BME280;54642;59.126;37.876;2024-02-21T11:16:42;100568.50;;;-1.93;62.34
67842;BME280;54642;59.126;37.876;2024-02-21T11:19:09;100583.50;;;-1.81;62.25
67842;BME280;54642;59.126;37.876;2024-02-21T11:21:39;100582.25;;;-1.73;62.38
67842;BME280;54642;59.126;37.876;2024-02-21T11:24:07;100583.47;;;-1.66;62.59
67842;BME280;54642;59.126;37.876;2024-02-21T11:26:32;100585.84;;;-1.52;62.54
67842;BME280;54642;59.126;37.876;2024-02-21T11:29:00;100575.38;;;-1.59;62.18
67842;BME280;54642;59.126;37.876;2024-02-21T11:31:26;100579.41;;;-1.62;62.35
67842;BME280;54642;59.126;37.876;2024-02-21T11:33:57;100551.78;;;-1.73;62.25
67842;BME280;54642;59.126;37.876;2024-02-21T11:36:27;100572.66;;;-1.62;62.08
67842;BME280;54642;59.126;37.876;2024-02-21T11:38:53;100578.03;;;-1.72;62.00
67842;BME280;54642;59.126;37.876;2024-02-21T11:41:19;100559.00;;;-1.97;62.38
67842;BME280;54642;59.126;37.876;2024-02-21T11:43:49;100528.16;;;-2.19;62.50
67842;BME280;54642;59.126;37.876;2024-02-21T11:46:16;100545.28;;;-2.15;62.93
67842;BME280;54642;59.126;37.876;2024-02-21T11:48:42;100555.63;;;-2.12;63.10
67842;BME280;54642;59.126;37.876;2024-02-21T11:51:25;100572.56;;;-2.11;62.95
67842;BME280;54642;59.126;37.876;2024-02-21T11:53:53;100560.56;;;-2.30;63.02
67842;BME280;54642;59.126;37.876;2024-02-21T11:56:19;100578.94;;;-2.19;63.23
67842;BME280;54642;59.126;37.876;2024-02-21T11:58:46;100566.41;;;-2.16;63.58
67842;BME280;54642;59.126;37.876;2024-02-21T12:01:15;100570.78;;;-1.97;63.40
67842;BME280;54642;59.126;37.876;2024-02-21T12:03:42;100578.13;;;-1.87;62.63
67842;BME280;54642;59.126;37.876;2024-02-21T12:06:08;100546.16;;;-2.15;62.81
67842;BME280;54642;59.126;37.876;2024-02-21T12:08:43;100568.28;;;-2.28;63.16
67842;BME280;54642;59.126;37.876;2024-02-21T12:11:21;100584.19;;;-2.16;63.36
67842;BME280;54642;59.126;37.876;2024-02-21T12:14:01;100585.91;;;-1.84;63.16
67842;BME280;54642;59.126;37.876;2024-02-21T12:16:28;100573.44;;;-1.79;62.70
67842;BME280;54642;59.126;37.876;2024-02-21T12:18:59;100572.66;;;-1.78;62.91
67842;BME280;54642;59.126;37.876;2024-02-21T12:21:26;100568.44;;;-1.78;62.78
67842;BME280;54642;59.126;37.876;2024-02-21T12:23:57;100569.53;;;-1.89;63.00
67842;BME280;54642;59.126;37.876;2024-02-21T12:26:22;100570.03;;;-1.63;63.22
67842;BME280;54642;59.126;37.876;2024-02-21T12:28:48;100555.22;;;-1.56;63.06
67842;BME280;54642;59.126;37.876;2024-02-21T12:31:14;100569.00;;;-1.50;62.87
67842;BME280;54642;59.126;37.876;2024-02-21T12:33:42;100577.19;;;-1.40;62.73
67842;BME280;54642;59.126;37.876;2024-02-21T12:36:08;100537.16;;;-1.60;62.40
67842;BME280;54642;59.126;37.876;2024-02-21T12:38:35;100522.78;;;-1.76;62.01
67842;BME280;54642;59.126;37.876;2024-02-21T12:41:01;100575.94;;;-1.64;61.91
67842;BME280;54642;59.126;37.876;2024-02-21T12:43:27;100570.91;;;-1.79;62.43
67842;BME280;54642;59.126;37.876;2024-02-21T12:45:53;100572.84;;;-2.06;62.50